Time;durP1;ratioP1;P1;durP2;ratioP2;P2;SDS_P1;SDS_P2;PMS_P1;PMS_P2;Temp;Humidity;BMP_temperature;BMP_pressure;BME280_temperature;BME280_humidity;BME280_pressure;Samples;Min_cycle;Max_cycle;Signal;HPM_P1;HPM_P2
2020/12/30 00:02:31;;;;;;;19.48;10.75;;;7.00;60.00;;;;;;5090898;28;20385;-75
2020/12/30 00:04:57;;;;;;;21.65;12.73;;;7.00;60.00;;;;;;5082705;28;20114;-80
2020/12/30 00:07:23;;;;;;;22.10;11.77;;;7.00;60.10;;;;;;5080301;28;20031;-79
2020/12/30 00:09:50;;;;;;;24.23;12.43;;;7.00;60.20;;;;;;5090992;28;20021;-78
2020/12/30 00:12:17;;;;;;;22.23;12.57;;;7.00;60.30;;;;;;5076854;28;20089;-76
2020/12/30 00:14:44;;;;;;;23.38;12.45;;;7.00;60.40;;;;;;5086250;28;20116;-77
2020/12/30 00:17:10;;;;;;;20.13;12.32;;;7.00;60.30;;;;;;5083927;28;20353;-75
2020/12/30 00:19:36;;;;;;;17.77;11.00;;;7.00;60.30;;;;;;5080392;28;20358;-82
2020/12/30 00:22:06;;;;;;;18.98;11.68;;;7.00;60.30;;;;;;5090834;28;20052;-78
2020/12/30 00:24:33;;;;;;;15.48;9.63;;;7.00;60.30;;;;;;5078678;28;20048;-76
2020/12/30 00:27:03;;;;;;;17.23;10.38;;;7.00;60.30;;;;;;5084074;28;20029;-75
2020/12/30 00:29:30;;;;;;;18.42;9.95;;;7.00;60.30;;;;;;5086879;28;20472;-75
2020/12/30 00:31:57;;;;;;;18.23;9.40;;;7.00;60.30;;;;;;5076681;28;20473;-75
2020/12/30 00:34:23;;;;;;;17.83;10.18;;;7.00;60.20;;;;;;5090435;28;20033;-78
2020/12/30 00:36:49;;;;;;;17.15;9.70;;;7.10;60.20;;;;;;5077117;28;20378;-77
2020/12/30 00:39:15;;;;;;;15.10;8.77;;;7.10;60.10;;;;;;5081456;28;20165;-77
2020/12/30 00:41:41;;;;;;;16.63;10.30;;;7.10;60.00;;;;;;5081908;28;20074;-77
2020/12/30 00:44:08;;;;;;;20.90;10.98;;;7.10;60.00;;;;;;5079256;28;20424;-79
2020/12/30 00:46:35;;;;;;;17.52;10.27;;;7.10;60.00;;;;;;5088395;28;20473;-79
2020/12/30 00:49:02;;;;;;;15.32;9.40;;;7.10;59.90;;;;;;5081575;28;20071;-78
2020/12/30 00:51:29;;;;;;;15.40;9.40;;;7.10;59.90;;;;;;5070566;28;20031;-80
2020/12/30 00:53:55;;;;;;;18.88;10.05;;;7.10;59.90;;;;;;5081788;28;20070;-73
2020/12/30 00:56:22;;;;;;;16.08;9.60;;;7.10;59.80;;;;;;5089968;28;20048;-77
2020/12/30 00:58:49;;;;;;;15.38;8.52;;;7.10;59.80;;;;;;5081659;28;20054;-74
2020/12/30 01:01:16;;;;;;;18.27;9.80;;;7.10;59.80;;;;;;5081296;28;20028;-80
2020/12/30 01:03:43;;;;;;;15.70;8.75;;;7.00;59.80;;;;;;5087632;28;20073;-77
2020/12/30 01:06:11;;;;;;;17.23;8.88;;;7.00;59.70;;;;;;5075966;28;20016;-78
2020/12/30 01:08:38;;;;;;;13.93;8.55;;;7.00;59.60;;;;;;5086503;28;20021;-78
2020/12/30 01:11:05;;;;;;;17.13;9.55;;;7.00;59.60;;;;;;5080347;28;20476;-78
2020/12/30 01:13:31;;;;;;;16.00;9.20;;;7.00;59.60;;;;;;5079254;28;20036;-78
2020/12/30 01:15:58;;;;;;;14.27;8.02;;;6.90;59.60;;;;;;5073563;28;20085;-76
2020/12/30 01:18:23;;;;;;;14.90;8.63;;;6.90;59.60;;;;;;5092896;28;20485;-76
2020/12/30 01:20:50;;;;;;;16.30;9.30;;;6.80;59.70;;;;;;5086814;28;20031;-73
2020/12/30 01:23:17;;;;;;;15.15;9.00;;;6.80;59.70;;;;;;5092178;28;20044;-78
2020/12/30 01:25:43;;;;;;;17.77;10.07;;;6.80;59.80;;;;;;5077115;28;20028;-78
2020/12/30 01:28:10;;;;;;;19.88;10.40;;;6.70;59.70;;;;;;5090143;28;20032;-79
2020/12/30 01:30:36;;;;;;;16.02;8.90;;;6.70;59.70;;;;;;5066979;28;20082;-79
2020/12/30 01:33:01;;;;;;;17.90;10.68;;;6.60;59.70;;;;;;5082319;28;20056;-74
2020/12/30 01:35:27;;;;;;;15.82;9.07;;;6.60;59.80;;;;;;5086550;28;20020;-75
2020/12/30 01:37:53;;;;;;;17.13;9.63;;;6.60;59.90;;;;;;5077915;28;20036;-79
2020/12/30 01:40:20;;;;;;;21.15;11.00;;;6.60;59.90;;;;;;5089848;28;20032;-81
2020/12/30 01:42:49;;;;;;;18.63;10.93;;;6.50;59.90;;;;;;5080722;28;20051;-77
2020/12/30 01:45:15;;;;;;;17.80;10.00;;;6.50;60.00;;;;;;5081940;28;20481;-77
2020/12/30 01:47:46;;;;;;;17.73;9.90;;;6.40;60.00;;;;;;5078273;28;20425;-77
2020/12/30 01:50:14;;;;;;;16.23;9.38;;;6.40;60.10;;;;;;5079096;28;20021;-79
2020/12/30 01:52:41;;;;;;;20.67;11.35;;;6.40;60.10;;;;;;5078116;28;20026;-79
2020/12/30 01:55:11;;;;;;;21.20;12.60;;;6.30;60.20;;;;;;5081899;28;20024;-75
2020/12/30 01:57:37;;;;;;;23.20;12.55;;;6.30;60.40;;;;;;5091667;28;20019;-74
2020/12/30 02:00:08;;;;;;;23.80;14.52;;;6.30;60.60;;;;;;5080527;28;20381;-75
2020/12/30 02:02:37;;;;;;;18.75;11.77;;;6.20;61.10;;;;;;5091354;28;20048;-78
2020/12/30 02:05:06;;;;;;;17.25;10.32;;;6.20;61.30;;;;;;5086761;28;20031;-78
2020/12/30 02:07:32;;;;;;;19.13;9.43;;;6.20;61.30;;;;;;5082102;28;20016;-76
2020/12/30 02:09:59;;;;;;;22.98;11.95;;;6.20;61.30;;;;;;5093797;28;20047;-78
2020/12/30 02:12:27;;;;;;;21.75;12.00;;;6.20;61.20;;;;;;5079530;28;20467;-76
2020/12/30 02:14:53;;;;;;;22.45;11.45;;;6.20;61.20;;;;;;5088739;28;20036;-74
2020/12/30 02:17:18;;;;;;;16.42;9.65;;;6.10;61.10;;;;;;5088695;28;20028;-75
2020/12/30 02:19:46;;;;;;;19.75;10.10;;;6.10;61.10;;;;;;5081578;28;20029;-77
2020/12/30 02:22:25;;;;;;;18.20;10.35;;;6.10;61.00;;;;;;5093302;28;20054;-76
2020/12/30 02:24:51;;;;;;;20.38;10.02;;;6.10;61.20;;;;;;5084908;28;20070;-81
2020/12/30 02:27:16;;;;;;;15.68;9.10;;;6.00;61.00;;;;;;5084920;28;20025;-76
2020/12/30 02:29:42;;;;;;;18.50;10.02;;;6.00;61.00;;;;;;5091955;28;20055;-78
2020/12/30 02:32:08;;;;;;;15.52;9.68;;;6.00;61.00;;;;;;5071573;28;20489;-76
2020/12/30 02:34:34;;;;;;;16.63;9.60;;;6.00;61.00;;;;;;5056554;28;20028;-80
2020/12/30 02:36:59;;;;;;;22.73;11.77;;;6.00;61.00;;;;;;5074015;28;20031;-77
2020/12/30 02:39:25;;;;;;;24.92;13.50;;;5.90;61.00;;;;;;5084078;28;20020;-78
2020/12/30 02:41:51;;;;;;;27.40;16.80;;;5.90;61.10;;;;;;5093381;28;20028;-77
2020/12/30 02:44:18;;;;;;;25.63;14.20;;;5.90;61.20;;;;;;5068034;28;20032;-75
2020/12/30 02:46:44;;;;;;;19.63;11.85;;;5.80;61.10;;;;;;5063152;28;20017;-78
2020/12/30 02:49:10;;;;;;;22.55;11.80;;;5.80;61.30;;;;;;5064657;28;20025;-74
2020/12/30 02:51:43;;;;;;;20.92;10.77;;;5.80;61.30;;;;;;5056662;28;20405;-77
2020/12/30 02:54:09;;;;;;;18.27;10.95;;;5.80;61.40;;;;;;5056530;28;20048;-80
2020/12/30 02:56:35;;;;;;;21.13;9.80;;;5.80;61.40;;;;;;5056389;28;20478;-77
2020/12/30 02:59:01;;;;;;;20.50;11.55;;;5.80;61.40;;;;;;5056236;28;20036;-80
2020/12/30 03:01:27;;;;;;;17.50;9.65;;;5.80;61.50;;;;;;5056257;28;20025;-79
2020/12/30 03:03:54;;;;;;;20.40;9.68;;;5.70;61.60;;;;;;5056271;28;20029;-79
2020/12/30 03:06:24;;;;;;;16.77;9.27;;;5.70;61.70;;;;;;5056666;28;20020;-79
2020/12/30 03:08:50;;;;;;;20.13;9.65;;;5.70;61.70;;;;;;5070530;28;20033;-75
2020/12/30 03:11:16;;;;;;;18.38;10.27;;;5.70;61.60;;;;;;5076122;28;20100;-77
2020/12/30 03:13:42;;;;;;;18.10;10.15;;;5.70;61.60;;;;;;5076085;28;20029;-79
2020/12/30 03:16:08;;;;;;;16.20;9.32;;;5.70;61.60;;;;;;5076426;28;20025;-79
2020/12/30 03:18:33;;;;;;;17.55;9.38;;;5.70;61.60;;;;;;5075981;28;20381;-77
2020/12/30 03:21:00;;;;;;;17.02;10.25;;;5.70;61.60;;;;;;5075944;28;20029;-77
2020/12/30 03:23:25;;;;;;;17.15;9.15;;;5.70;61.70;;;;;;5075542;28;20066;-78
2020/12/30 03:25:51;;;;;;;19.25;9.80;;;5.70;61.70;;;;;;5076116;28;20017;-79
2020/12/30 03:28:17;;;;;;;17.35;9.43;;;5.60;61.60;;;;;;5074605;28;20017;-80
2020/12/30 03:30:43;;;;;;;18.85;10.52;;;5.60;61.60;;;;;;5075153;28;20048;-78
2020/12/30 03:33:08;;;;;;;17.70;9.65;;;5.60;61.60;;;;;;5074138;28;20025;-72
2020/12/30 03:35:34;;;;;;;18.90;8.93;;;5.60;61.60;;;;;;5075630;28;20025;-79
2020/12/30 03:38:00;;;;;;;15.25;8.82;;;5.60;61.70;;;;;;5075624;28;20385;-72
2020/12/30 03:40:26;;;;;;;21.25;10.77;;;5.60;61.80;;;;;;5075577;28;20380;-77
2020/12/30 03:42:51;;;;;;;17.63;9.75;;;5.60;61.90;;;;;;5074716;28;20025;-75
2020/12/30 03:45:17;;;;;;;17.23;8.32;;;5.50;61.90;;;;;;5057902;28;20048;-75
2020/12/30 03:47:43;;;;;;;16.63;8.98;;;5.60;62.00;;;;;;5055058;28;20021;-79
2020/12/30 03:50:08;;;;;;;15.88;8.80;;;5.60;62.00;;;;;;5056681;28;20049;-74
2020/12/30 03:52:34;;;;;;;17.65;8.85;;;5.60;62.00;;;;;;5056245;28;20457;-75
2020/12/30 03:55:00;;;;;;;14.13;7.68;;;5.60;62.10;;;;;;5059501;28;20025;-81
2020/12/30 03:57:26;;;;;;;20.80;10.60;;;5.60;62.10;;;;;;5054686;28;20025;-76
2020/12/30 03:59:52;;;;;;;18.25;10.18;;;5.60;62.00;;;;;;5055303;28;20432;-79
2020/12/30 04:02:18;;;;;;;14.98;8.93;;;5.60;61.90;;;;;;5055442;28;20017;-76
2020/12/30 04:04:43;;;;;;;17.20;10.18;;;5.60;61.80;;;;;;5054972;28;20032;-80
2020/12/30 04:07:11;;;;;;;15.90;9.15;;;5.60;61.80;;;;;;5054833;28;20371;-75
2020/12/30 04:09:37;;;;;;;17.27;9.38;;;5.60;61.80;;;;;;5054736;28;20063;-75
2020/12/30 04:12:03;;;;;;;21.67;11.07;;;5.50;61.70;;;;;;5054973;28;20052;-78
2020/12/30 04:14:29;;;;;;;23.35;12.77;;;5.50;61.80;;;;;;5055251;28;20125;-73
2020/12/30 04:16:55;;;;;;;28.63;14.40;;;5.50;61.80;;;;;;5072476;28;20449;-76
2020/12/30 04:19:21;;;;;;;21.95;11.07;;;5.50;61.80;;;;;;5074509;28;20104;-73
2020/12/30 04:21:47;;;;;;;22.77;11.70;;;5.50;61.80;;;;;;5074687;28;20048;-75
2020/12/30 04:24:12;;;;;;;18.23;9.73;;;5.50;61.90;;;;;;5073290;28;20032;-78
2020/12/30 04:26:38;;;;;;;22.55;12.60;;;5.50;62.00;;;;;;5073347;28;20431;-76
2020/12/30 04:29:04;;;;;;;23.95;12.52;;;5.50;62.20;;;;;;5072814;28;20024;-78
2020/12/30 04:31:30;;;;;;;19.10;11.48;;;5.50;62.40;;;;;;5074523;28;20183;-79
2020/12/30 04:33:56;;;;;;;20.95;11.32;;;5.50;62.50;;;;;;5074476;28;20024;-78
2020/12/30 04:36:22;;;;;;;19.45;11.15;;;5.60;62.60;;;;;;5074529;28;20025;-76
2020/12/30 04:38:47;;;;;;;16.00;9.88;;;5.60;62.70;;;;;;5074473;28;20547;-77
2020/12/30 04:41:15;;;;;;;20.05;10.93;;;5.70;62.70;;;;;;5074389;28;20028;-78
2020/12/30 04:43:43;;;;;;;21.95;10.57;;;5.70;62.70;;;;;;5074146;28;20052;-79
2020/12/30 04:46:12;;;;;;;16.40;9.10;;;5.80;62.70;;;;;;5063677;28;20018;-80
2020/12/30 04:48:39;;;;;;;15.63;8.98;;;5.80;62.60;;;;;;5054091;28;20032;-78
2020/12/30 04:51:05;;;;;;;20.35;10.20;;;5.90;62.60;;;;;;5054848;28;20025;-79
2020/12/30 04:53:33;;;;;;;21.48;9.82;;;5.90;62.50;;;;;;5054256;28;20063;-74
2020/12/30 04:56:00;;;;;;;17.75;9.88;;;6.00;62.40;;;;;;5052762;28;20067;-77
2020/12/30 04:58:28;;;;;;;17.50;9.57;;;6.00;62.30;;;;;;5052891;28;20025;-79
2020/12/30 05:00:55;;;;;;;15.48;9.00;;;6.10;62.20;;;;;;5054141;28;20052;-77
2020/12/30 05:03:29;;;;;;;21.08;11.07;;;6.10;62.20;;;;;;5058062;28;20086;-76
2020/12/30 05:06:05;;;;;;;19.90;10.25;;;6.20;62.10;;;;;;5074424;28;20422;-82
2020/12/30 05:08:34;;;;;;;19.38;9.13;;;6.20;62.00;;;;;;5081127;28;20295;-74
2020/12/30 05:11:01;;;;;;;17.95;9.35;;;6.30;61.90;;;;;;5083562;28;20017;-73
2020/12/30 05:13:27;;;;;;;12.38;8.55;;;6.30;61.80;;;;;;5079598;28;20020;-78
2020/12/30 05:15:53;;;;;;;18.48;9.25;;;6.30;61.70;;;;;;5081836;28;20029;-80
2020/12/30 05:18:19;;;;;;;17.08;9.63;;;6.30;61.50;;;;;;5077566;28;20028;-75
2020/12/30 05:20:46;;;;;;;18.58;9.65;;;6.40;61.50;;;;;;5078039;28;20025;-77
2020/12/30 05:23:13;;;;;;;18.42;9.40;;;6.40;61.40;;;;;;5074095;28;20036;-79
2020/12/30 05:25:40;;;;;;;14.65;8.80;;;6.40;61.40;;;;;;5073923;28;20141;-78
2020/12/30 05:28:08;;;;;;;16.77;9.18;;;6.40;61.30;;;;;;5073826;28;20013;-77
2020/12/30 05:30:36;;;;;;;16.55;8.65;;;6.50;61.30;;;;;;5071505;28;20028;-76
2020/12/30 05:33:02;;;;;;;14.07;8.05;;;6.50;61.20;;;;;;5062046;28;20186;-75
2020/12/30 05:35:29;;;;;;;13.68;7.25;;;6.50;61.10;;;;;;5073603;28;20031;-80
2020/12/30 05:37:55;;;;;;;16.13;8.88;;;6.50;61.10;;;;;;5074130;28;20031;-76
2020/12/30 05:40:31;;;;;;;14.32;8.23;;;6.50;61.10;;;;;;5073558;28;20503;-80
2020/12/30 05:43:11;;;;;;;16.80;8.20;;;6.60;61.00;;;;;;5073660;28;20024;-73
2020/12/30 05:45:48;;;;;;;20.77;11.55;;;6.60;61.00;;;;;;5053699;28;20089;-79
2020/12/30 05:48:15;;;;;;;16.45;8.70;;;6.60;61.00;;;;;;5053622;28;20028;-75
2020/12/30 05:50:54;;;;;;;20.50;10.52;;;6.60;61.00;;;;;;5050797;28;20112;-76
2020/12/30 05:53:20;;;;;;;17.73;8.93;;;6.60;61.00;;;;;;5053619;28;20108;-75
2020/12/30 05:55:49;;;;;;;16.95;8.32;;;6.60;61.00;;;;;;5053520;28;20070;-75
2020/12/30 05:58:17;;;;;;;15.65;8.60;;;6.60;61.10;;;;;;5065821;28;20031;-73
2020/12/30 06:00:46;;;;;;;14.65;8.30;;;6.70;61.00;;;;;;5073831;28;20032;-78
2020/12/30 06:03:15;;;;;;;14.70;8.65;;;6.70;61.00;;;;;;5073682;28;20440;-79
2020/12/30 06:05:42;;;;;;;16.38;8.75;;;6.70;60.90;;;;;;5073274;28;20381;-77
2020/12/30 06:08:07;;;;;;;15.27;8.90;;;6.70;60.90;;;;;;5073362;28;20381;-78
2020/12/30 06:10:38;;;;;;;17.85;8.55;;;6.80;60.90;;;;;;5073506;28;20020;-79
2020/12/30 06:13:05;;;;;;;16.33;8.57;;;6.80;60.90;;;;;;5073340;28;20521;-74
2020/12/30 06:15:33;;;;;;;15.95;8.70;;;6.80;60.80;;;;;;5073205;28;20055;-76
2020/12/30 06:18:07;;;;;;;16.52;8.90;;;6.80;60.80;;;;;;5073295;28;20021;-77
2020/12/30 06:20:37;;;;;;;16.63;9.45;;;6.80;60.70;;;;;;5073256;28;20058;-74
2020/12/30 06:23:10;;;;;;;16.92;9.32;;;6.80;60.60;;;;;;5056383;28;20049;-77
2020/12/30 06:25:40;;;;;;;16.55;8.52;;;6.80;60.50;;;;;;5052237;28;20047;-77
2020/12/30 06:28:11;;;;;;;15.88;8.98;;;6.90;61.30;;;;;;5058263;28;20021;-76
2020/12/30 06:30:39;;;;;;;16.40;9.40;;;6.90;60.50;;;;;;5056759;28;20489;-76
2020/12/30 06:33:06;;;;;;;16.45;8.75;;;6.90;60.50;;;;;;5052830;28;20381;-76
2020/12/30 06:35:33;;;;;;;20.83;10.82;;;6.90;60.50;;;;;;5051776;28;20066;-74
2020/12/30 06:38:18;;;;;;;18.20;9.52;;;6.90;60.40;;;;;;5052969;28;20058;-75
2020/12/30 06:40:59;;;;;;;;;;;6.90;60.30;;;;;;5053663;28;20139;-74
2020/12/30 06:43:48;;;;;;;17.92;9.40;;;6.90;60.40;;;;;;5055106;28;19909;-77
2020/12/30 06:46:23;;;;;;;21.25;10.73;;;7.00;60.20;;;;;;5056417;28;20052;-77
2020/12/30 06:48:54;;;;;;;21.70;11.75;;;6.90;60.10;;;;;;5056111;28;20025;-76
2020/12/30 06:51:20;;;;;;;19.48;10.30;;;6.90;60.00;;;;;;5056108;28;20480;-74
2020/12/30 06:53:56;;;;;;;20.67;9.80;;;6.90;60.00;;;;;;5060772;28;20036;-78
2020/12/30 06:56:46;;;;;;;14.85;8.55;;;7.00;60.20;;;;;;5076326;28;20370;-75
2020/12/30 06:59:26;;;;;;;18.92;10.75;;;6.90;60.10;;;;;;5075346;28;20032;-78
2020/12/30 07:01:52;;;;;;;19.13;10.30;;;6.90;60.20;;;;;;5075966;28;20031;-74
2020/12/30 07:04:18;;;;;;;16.92;9.07;;;7.00;60.30;;;;;;5076207;28;20028;-77
2020/12/30 07:06:43;;;;;;;14.95;8.93;;;7.00;60.30;;;;;;5076797;28;20441;-76
2020/12/30 07:09:14;;;;;;;15.35;9.60;;;7.00;60.30;;;;;;5076488;28;20036;-78
2020/12/30 07:11:52;;;;;;;15.30;9.32;;;7.00;60.40;;;;;;5076325;28;20024;-79
2020/12/30 07:14:26;;;;;;;16.85;9.02;;;7.00;60.30;;;;;;5076219;28;20241;-77
2020/12/30 07:16:59;;;;;;;16.75;9.38;;;7.00;60.30;;;;;;5075575;28;20418;-79
2020/12/30 07:19:28;;;;;;;18.52;9.40;;;7.10;60.40;;;;;;5074722;28;20064;-76
2020/12/30 07:21:56;;;;;;;16.50;8.95;;;7.10;60.40;;;;;;5075857;28;20053;-78
2020/12/30 07:24:25;;;;;;;15.10;8.68;;;7.10;60.30;;;;;;5075905;28;20017;-76
2020/12/30 07:26:54;;;;;;;22.23;10.02;;;7.10;60.30;;;;;;5076260;28;20099;-78
2020/12/30 07:29:20;;;;;;;21.50;11.27;;;7.10;60.40;;;;;;5069855;28;20025;-78
2020/12/30 07:31:48;;;;;;;21.75;11.52;;;7.10;60.30;;;;;;5056158;28;20056;-77
2020/12/30 07:34:16;;;;;;;23.98;12.45;;;7.10;60.30;;;;;;5055758;28;20485;-77
2020/12/30 07:36:43;;;;;;;25.17;12.55;;;7.10;60.20;;;;;;5055573;28;20025;-79
2020/12/30 07:39:09;;;;;;;24.63;12.65;;;7.10;60.10;;;;;;5055756;28;20427;-80
2020/12/30 07:41:42;;;;;;;23.85;13.27;;;7.10;60.20;;;;;;5055567;28;20056;-77
2020/12/30 07:44:08;;;;;;;21.58;13.02;;;7.00;60.20;;;;;;5055883;28;20025;-77
2020/12/30 07:46:34;;;;;;;22.55;12.20;;;7.00;60.90;;;;;;5055653;28;20048;-75
2020/12/30 07:49:17;;;;;;;24.77;13.35;;;7.00;60.10;;;;;;5071802;28;20024;-77
2020/12/30 07:51:52;;;;;;;23.07;13.00;;;7.00;60.10;;;;;;5076083;28;20020;-78
2020/12/30 07:54:18;;;;;;;;;;;7.00;60.10;;;;;;5074207;28;20021;-77
2020/12/30 07:56:44;;;;;;;24.67;12.48;;;7.00;60.30;;;;;;5075251;28;19904;-76
2020/12/30 07:59:18;;;;;;;21.60;11.85;;;7.00;60.30;;;;;;5075201;28;20480;-76
2020/12/30 08:01:56;;;;;;;27.53;13.20;;;7.00;60.40;;;;;;5075585;28;20021;-79
2020/12/30 08:04:22;;;;;;;27.25;14.15;;;6.90;60.50;;;;;;5075796;28;20305;-75
2020/12/30 08:06:48;;;;;;;25.45;14.23;;;6.90;60.60;;;;;;5075138;28;20025;-80
2020/12/30 08:09:15;;;;;;;22.75;11.25;;;6.90;60.70;;;;;;5074676;28;20354;-81
2020/12/30 08:11:55;;;;;;;24.08;11.73;;;6.90;60.80;;;;;;5069766;28;20096;-81
2020/12/30 08:14:22;;;;;;;24.42;12.27;;;6.90;60.80;;;;;;5070529;28;20104;-77
2020/12/30 08:17:08;;;;;;;19.45;11.35;;;7.00;60.70;;;;;;5054184;28;20402;-78
2020/12/30 08:19:47;;;;;;;26.73;14.98;;;7.00;60.60;;;;;;5057752;28;20021;-79
2020/12/30 08:22:17;;;;;;;25.38;13.75;;;7.00;60.60;;;;;;5056068;28;20042;-79
2020/12/30 08:24:44;;;;;;;21.83;12.27;;;7.00;60.70;;;;;;5054679;28;20067;-77
2020/12/30 08:27:15;;;;;;;20.45;11.05;;;7.10;60.50;;;;;;5054795;28;20044;-78
2020/12/30 08:29:42;;;;;;;18.80;10.55;;;7.10;60.20;;;;;;5061535;28;20020;-78
2020/12/30 08:32:21;;;;;;;134.18;52.42;;;7.10;60.10;;;;;;5074514;28;20096;-77
2020/12/30 08:34:57;;;;;;;42.25;18.02;;;7.20;60.10;;;;;;5074425;28;20024;-77
2020/12/30 08:37:28;;;;;;;17.95;10.75;;;7.20;60.10;;;;;;5074607;28;20055;-79
2020/12/30 08:40:28;;;;;;;16.65;9.63;;;7.20;60.10;;;;;;5070009;28;20017;-78
2020/12/30 08:43:03;;;;;;;17.83;10.13;;;7.30;60.00;;;;;;5054347;28;20021;-78
2020/12/30 08:45:45;;;;;;;15.05;8.82;;;7.30;60.00;;;;;;5054356;28;20075;-81
2020/12/30 08:48:18;;;;;;;13.85;8.30;;;7.30;60.00;;;;;;5054235;28;20489;-77
2020/12/30 08:50:45;;;;;;;15.85;9.85;;;7.30;60.00;;;;;;5053006;28;20385;-78
2020/12/30 08:53:14;;;;;;;17.83;9.63;;;7.40;60.00;;;;;;5054231;28;20037;-79
2020/12/30 08:55:40;;;;;;;15.75;9.07;;;7.40;60.10;;;;;;5054297;28;20494;-76
2020/12/30 08:58:06;;;;;;;14.07;8.05;;;7.40;60.00;;;;;;5054695;28;20033;-78
2020/12/30 09:00:36;;;;;;;16.67;7.82;;;7.50;60.10;;;;;;5054453;28;20074;-79
2020/12/30 09:03:16;;;;;;;17.10;8.45;;;7.50;59.90;;;;;;5053304;28;20037;-78
2020/12/30 09:05:51;;;;;;;14.85;9.50;;;7.50;59.90;;;;;;5056814;28;20044;-76
2020/12/30 09:08:22;;;;;;;18.77;9.63;;;7.50;59.80;;;;;;5057737;28;20429;-80
2020/12/30 09:10:49;;;;;;;16.70;9.77;;;7.60;59.60;;;;;;5053887;28;20028;-76
2020/12/30 09:13:23;;;;;;;14.48;8.45;;;7.60;59.50;;;;;;5052631;28;20056;-80
2020/12/30 09:15:57;;;;;;;;;;;7.60;59.60;;;;;;5054627;28;20033;-76
2020/12/30 09:18:23;;;;;;;22.35;11.60;;;7.70;59.80;;;;;;5053594;28;19909;-79
2020/12/30 09:20:50;;;;;;;16.35;9.80;;;7.70;59.50;;;;;;5053747;28;20512;-78
2020/12/30 09:23:20;;;;;;;19.65;10.80;;;7.70;59.60;;;;;;5053545;28;20041;-77
2020/12/30 09:25:46;;;;;;;22.27;11.80;;;7.80;59.60;;;;;;5053542;28;20131;-77
2020/12/30 09:28:18;;;;;;;16.88;10.20;;;7.80;59.50;;;;;;5053512;28;20066;-74
2020/12/30 09:30:45;;;;;;;20.25;9.18;;;7.90;59.40;;;;;;5053967;28;20021;-76
2020/12/30 09:33:18;;;;;;;15.90;9.98;;;7.90;59.20;;;;;;5052191;28;20132;-76
2020/12/30 09:35:44;;;;;;;19.65;11.68;;;7.90;59.10;;;;;;5053440;28;20029;-74
2020/12/30 09:38:22;;;;;;;26.40;12.85;;;7.90;58.90;;;;;;5052200;28;20025;-78
2020/12/30 09:40:50;;;;;;;19.52;11.38;;;8.00;58.90;;;;;;5053602;28;20024;-76
2020/12/30 09:43:21;;;;;;;19.02;11.10;;;8.00;59.70;;;;;;5053329;28;20021;-77
2020/12/30 09:45:49;;;;;;;19.90;10.63;;;8.00;59.20;;;;;;5053525;28;20013;-76
2020/12/30 09:48:17;;;;;;;23.60;12.82;;;8.10;59.30;;;;;;5053758;28;20111;-76
2020/12/30 09:50:44;;;;;;;27.60;14.30;;;8.20;59.20;;;;;;5053374;28;20035;-75
2020/12/30 09:53:11;;;;;;;27.17;15.60;;;8.30;59.20;;;;;;5053366;28;20075;-74
2020/12/30 09:55:37;;;;;;;20.92;12.43;;;8.30;59.60;;;;;;5052062;28;20036;-77
2020/12/30 09:58:04;;;;;;;21.30;11.65;;;8.40;58.90;;;;;;5053646;28;20029;-76
2020/12/30 10:00:30;;;;;;;21.23;12.18;;;8.40;58.80;;;;;;5053663;28;20493;-76
2020/12/30 10:02:56;;;;;;;20.90;11.80;;;8.50;58.80;;;;;;5053190;28;20549;-79
2020/12/30 10:05:22;;;;;;;22.63;12.10;;;8.50;58.70;;;;;;5053362;28;20147;-81
2020/12/30 10:07:47;;;;;;;21.95;12.05;;;8.60;58.60;;;;;;5053343;28;20018;-76
2020/12/30 10:10:13;;;;;;;22.85;12.27;;;8.60;58.60;;;;;;5053225;28;20021;-78
2020/12/30 10:12:40;;;;;;;25.38;14.23;;;8.60;58.40;;;;;;5053072;28;20040;-77
2020/12/30 10:15:10;;;;;;;24.58;13.50;;;8.70;58.00;;;;;;5052972;28;20055;-75
2020/12/30 10:17:38;;;;;;;24.60;13.30;;;8.70;57.90;;;;;;5055621;28;20028;-82
2020/12/30 10:20:06;;;;;;;25.30;13.68;;;8.70;57.90;;;;;;5057335;28;20033;-78
2020/12/30 10:22:32;;;;;;;24.85;13.90;;;8.70;57.80;;;;;;5056775;28;20049;-76
2020/12/30 10:24:58;;;;;;;26.35;14.75;;;8.80;57.90;;;;;;5056975;28;20051;-78
2020/12/30 10:27:24;;;;;;;21.23;12.10;;;8.80;58.00;;;;;;5056884;28;20017;-74
2020/12/30 10:29:50;;;;;;;22.98;12.30;;;8.90;58.10;;;;;;5065727;28;20034;-79
2020/12/30 10:32:15;;;;;;;21.13;12.57;;;8.90;57.90;;;;;;5076551;28;20473;-74
2020/12/30 10:34:42;;;;;;;25.40;13.27;;;8.90;57.70;;;;;;5076570;28;20025;-77
2020/12/30 10:37:08;;;;;;;20.80;11.98;;;8.90;57.40;;;;;;5063652;28;20466;-78
2020/12/30 10:39:35;;;;;;;20.42;11.52;;;9.00;57.40;;;;;;5056693;28;20031;-79
2020/12/30 10:42:03;;;;;;;17.35;9.63;;;9.00;57.20;;;;;;5056688;28;20021;-76
2020/12/30 10:44:30;;;;;;;18.05;10.55;;;9.00;57.20;;;;;;5056459;28;20389;-80
2020/12/30 10:46:56;;;;;;;17.65;9.27;;;9.00;56.90;;;;;;5056556;28;20018;-80
2020/12/30 10:49:22;;;;;;;17.17;9.45;;;9.10;56.90;;;;;;5056773;28;20025;-75
2020/12/30 10:51:49;;;;;;;17.02;8.65;;;9.10;56.80;;;;;;5056324;28;20025;-77
2020/12/30 10:54:16;;;;;;;17.23;9.07;;;9.10;56.80;;;;;;5056977;28;20063;-76
2020/12/30 10:56:53;;;;;;;14.23;8.52;;;9.10;56.60;;;;;;5056340;28;20025;-77
2020/12/30 10:59:20;;;;;;;16.42;8.52;;;9.10;56.60;;;;;;5056549;28;20029;-78
2020/12/30 11:01:52;;;;;;;13.07;7.85;;;9.10;56.30;;;;;;5056611;28;20481;-79
2020/12/30 11:04:18;;;;;;;11.95;7.15;;;9.00;56.50;;;;;;5056419;28;20386;-79
2020/12/30 11:06:46;;;;;;;13.30;7.70;;;9.00;56.20;;;;;;5064002;28;20420;-77
2020/12/30 11:09:13;;;;;;;13.02;7.88;;;9.00;56.30;;;;;;5074615;28;20473;-78
2020/12/30 11:11:40;;;;;;;16.60;8.75;;;8.90;56.20;;;;;;5076632;28;20420;-80
2020/12/30 11:14:06;;;;;;;13.98;7.68;;;8.90;56.10;;;;;;5074320;28;20417;-78
2020/12/30 11:16:31;;;;;;;11.93;7.32;;;8.90;56.10;;;;;;5056731;28;20048;-76
2020/12/30 11:18:57;;;;;;;11.50;7.15;;;8.90;56.20;;;;;;5055974;28;20033;-79
2020/12/30 11:21:23;;;;;;;11.18;6.93;;;8.80;56.50;;;;;;5055922;28;20053;-76
2020/12/30 11:23:49;;;;;;;11.77;7.45;;;8.90;56.60;;;;;;5054487;28;20080;-76
2020/12/30 11:26:15;;;;;;;14.65;7.32;;;8.90;56.60;;;;;;5055811;28;20021;-77
2020/12/30 11:28:40;;;;;;;10.05;6.28;;;9.00;56.40;;;;;;5054932;28;20513;-79
2020/12/30 11:31:07;;;;;;;19.75;7.00;;;9.00;56.20;;;;;;5074029;28;20024;-78
2020/12/30 11:33:33;;;;;;;11.43;6.13;;;9.00;56.00;;;;;;5075810;28;20024;-79
2020/12/30 11:35:59;;;;;;;10.27;5.45;;;9.00;56.00;;;;;;5069129;28;20021;-77
2020/12/30 11:38:25;;;;;;;16.15;6.28;;;9.00;55.60;;;;;;5055622;28;20112;-76
2020/12/30 11:40:51;;;;;;;11.63;5.38;;;9.00;55.60;;;;;;5055912;28;20024;-78
2020/12/30 11:43:17;;;;;;;13.20;5.47;;;9.00;55.30;;;;;;5054395;28;20055;-78
2020/12/30 11:45:42;;;;;;;9.95;5.22;;;9.00;55.60;;;;;;5055341;28;20029;-76
2020/12/30 11:48:08;;;;;;;15.77;5.20;;;9.10;55.50;;;;;;5055732;28;20021;-77
2020/12/30 11:50:35;;;;;;;9.93;5.07;;;9.10;55.50;;;;;;5055234;28;20047;-74
2020/12/30 11:53:01;;;;;;;10.05;5.22;;;9.10;55.40;;;;;;5055471;28;20075;-74
2020/12/30 11:55:27;;;;;;;9.48;4.97;;;9.20;55.30;;;;;;5055383;28;20024;-76
2020/12/30 11:57:54;;;;;;;8.68;5.22;;;9.20;55.10;;;;;;5055516;28;20067;-79
2020/12/30 12:00:20;;;;;;;9.20;4.50;;;9.20;54.90;;;;;;5060990;28;20095;-76
2020/12/30 12:02:46;;;;;;;11.15;3.85;;;9.20;55.00;;;;;;5075271;28;20095;-77
2020/12/30 12:05:12;;;;;;;8.65;4.32;;;9.30;54.80;;;;;;5075421;28;20477;-78
2020/12/30 12:07:39;;;;;;;6.22;3.30;;;9.30;54.70;;;;;;5073808;28;20395;-77
2020/12/30 12:10:06;;;;;;;5.30;3.40;;;9.30;54.60;;;;;;5074943;28;20027;-76
2020/12/30 12:12:32;;;;;;;10.00;3.80;;;9.40;54.60;;;;;;5074795;28;20021;-77
2020/12/30 12:14:57;;;;;;;8.93;3.83;;;9.40;54.60;;;;;;5072979;28;20023;-78
2020/12/30 12:17:23;;;;;;;8.32;4.70;;;9.40;54.40;;;;;;5057522;28;20036;-77
2020/12/30 12:19:49;;;;;;;10.18;3.80;;;9.40;54.50;;;;;;5055034;28;20021;-79
2020/12/30 12:22:15;;;;;;;9.45;3.75;;;9.40;54.40;;;;;;5054656;28;20411;-77
2020/12/30 12:24:41;;;;;;;8.43;3.42;;;9.40;54.30;;;;;;5053167;28;20120;-77
2020/12/30 12:27:07;;;;;;;7.07;3.92;;;9.40;54.00;;;;;;5054729;28;20374;-77
2020/12/30 12:29:35;;;;;;;11.38;4.07;;;9.30;54.00;;;;;;5069494;28;20029;-78
2020/12/30 12:32:06;;;;;;;14.13;5.47;;;9.40;53.90;;;;;;5074431;28;20029;-77
2020/12/30 12:34:33;;;;;;;22.38;5.00;;;9.40;54.00;;;;;;5069845;28;20493;-77
2020/12/30 12:37:00;;;;;;;13.60;5.68;;;9.40;54.20;;;;;;5057609;28;20037;-73
2020/12/30 12:39:27;;;;;;;17.75;6.63;;;9.30;54.30;;;;;;5056391;28;20029;-79
2020/12/30 12:41:53;;;;;;;14.60;5.78;;;9.40;54.60;;;;;;5059514;28;20550;-78
2020/12/30 12:44:19;;;;;;;12.80;6.68;;;9.40;54.80;;;;;;5062611;28;20025;-76
2020/12/30 12:46:45;;;;;;;11.32;6.70;;;9.30;55.00;;;;;;5073079;28;20021;-78
2020/12/30 12:49:11;;;;;;;12.07;6.90;;;9.40;55.10;;;;;;5075194;28;20021;-76